createdAt,value
2022-09-22T00:03:19.349Z,78.9
2022-09-22T00:08:25.702Z,79.1
2022-09-22T00:13:56.216Z,79.0
2022-09-22T00:18:38.627Z,78.9
2022-09-22T00:23:34.909Z,79.0
2022-09-22T00:29:15.347Z,79.1
2022-09-22T00:33:57.715Z,79.3
2022-09-22T00:38:54.055Z,79.3
2022-09-22T00:45:04.589Z,79.4
2022-09-22T00:49:52.130Z,79.3
2022-09-22T00:54:58.661Z,79.5
2022-09-22T01:00:05.104Z,79.5
2022-09-22T01:15:24.245Z,79.6
2022-09-22T01:20:54.713Z,79.8
2022-09-22T01:31:03.541Z,79.8
2022-09-22T01:35:49.805Z,79.8
2022-09-22T01:56:29.381Z,80.3
2022-09-22T02:01:21.878Z,80.4
2022-09-22T02:06:52.258Z,80.2
2022-09-22T02:12:36.734Z,80.9
2022-09-22T02:16:40.972Z,80.3
2022-09-22T02:21:47.367Z,80.4
2022-09-22T02:32:00.328Z,80.5
2022-09-22T02:37:06.549Z,80.5
2022-09-22T02:42:13.006Z,80.6
2022-09-22T02:52:25.879Z,80.7
2022-09-22T02:57:36.261Z,80.7
2022-09-22T03:02:58.729Z,80.7
2022-09-22T03:13:14.915Z,80.9
2022-09-22T03:17:56.807Z,80.9
2022-09-22T03:28:10.677Z,81.0
2022-09-22T03:34:17.160Z,81.2
2022-09-22T03:39:23.580Z,81.1
2022-09-22T03:43:29.811Z,81.2
2022-09-22T03:48:36.179Z,81.4
2022-09-22T03:53:42.567Z,81.4
2022-09-22T03:59:09.053Z,81.3
2022-09-22T04:03:55.331Z,81.4
2022-09-22T04:09:21.758Z,81.5
2022-09-22T04:14:08.205Z,81.6
2022-09-22T04:19:14.528Z,82.1
2022-09-22T04:24:41.062Z,81.6
2022-09-22T04:29:17.389Z,81.7
2022-09-22T04:34:23.914Z,81.8
2022-09-22T04:39:40.372Z,81.9
2022-09-22T04:45:06.796Z,81.9
2022-09-22T04:49:53.164Z,81.9
2022-09-22T04:55:43.618Z,82.1
2022-09-22T05:00:05.947Z,82.0
2022-09-22T05:05:32.429Z,82.1
2022-09-22T05:10:18.749Z,82.3
2022-09-22T05:15:25.180Z,82.3
2022-09-22T05:20:31.663Z,82.1
2022-09-22T05:25:38.084Z,82.4
2022-09-22T05:31:04.477Z,82.5
2022-09-22T05:40:57.222Z,82.5
2022-09-22T05:46:03.628Z,82.4
2022-09-22T05:51:09.973Z,82.4
2022-09-22T05:56:16.375Z,82.2
2022-09-22T06:01:46.907Z,82.2
2022-09-22T06:06:29.100Z,82.0
2022-09-22T06:11:35.540Z,82.0
2022-09-22T06:16:42.025Z,82.0
2022-09-22T06:26:54.699Z,82.0
2022-09-22T06:32:01.115Z,82.3
2022-09-22T06:37:27.588Z,82.7
2022-09-22T06:47:24.311Z,83.2
2022-09-22T06:52:16.656Z,83.4
2022-09-22T06:57:33.057Z,83.3
2022-09-22T07:03:03.567Z,83.6
2022-09-22T07:08:58.171Z,83.3
2022-09-22T07:13:36.452Z,83.4
2022-09-22T07:17:58.736Z,84.5
2022-09-22T07:23:49.234Z,85.2
2022-09-22T07:28:11.554Z,86.5
2022-09-22T07:33:18.058Z,89.7
2022-09-22T07:38:24.382Z,88.9
2022-09-22T07:43:30.783Z,85.3
2022-09-22T07:48:37.138Z,83.1
2022-09-22T07:53:43.646Z,80.3
2022-09-22T07:58:50.148Z,79.0
2022-09-22T08:03:56.417Z,77.3
2022-09-22T08:09:02.815Z,74.7
2022-09-22T08:14:09.264Z,73.4
2022-09-22T08:24:22.494Z,69.3
2022-09-22T08:29:52.503Z,67.5
2022-09-22T08:34:34.809Z,66.2
2022-09-22T08:39:41.736Z,64.5
2022-09-22T08:44:38.104Z,62.8
2022-09-22T08:49:54.604Z,61.5
2022-09-22T08:55:00.976Z,62.1
2022-09-22T08:59:57.345Z,61.4
2022-09-22T09:05:12.763Z,61.0
2022-09-22T09:10:20.127Z,58.7
2022-09-22T09:15:26.540Z,58.0
2022-09-22T09:25:39.492Z,57.2
2022-09-22T09:30:35.885Z,55.7
2022-09-22T09:35:51.280Z,54.2
2022-09-22T09:40:58.694Z,54.4
2022-09-22T09:46:05.164Z,54.1
2022-09-22T09:51:11.471Z,53.7
2022-09-22T09:56:17.883Z,51.7
2022-09-22T10:01:14.345Z,50.8
2022-09-22T10:06:19.631Z,51.0
2022-09-22T10:11:37.007Z,51.1
2022-09-22T10:17:03.407Z,48.7
2022-09-22T10:21:53.767Z,47.6
2022-09-22T10:26:56.165Z,48.3
2022-09-22T10:32:02.532Z,47.9
2022-09-22T10:42:06.500Z,45.6
2022-09-22T10:47:26.963Z,45.8
2022-09-22T10:52:19.236Z,45.8
2022-09-22T10:57:35.658Z,44.3
2022-09-22T11:02:32.009Z,45.0
2022-09-22T11:07:48.417Z,45.0
2022-09-22T11:12:54.808Z,42.4
2022-09-22T11:18:01.165Z,42.5
2022-09-22T11:23:07.579Z,42.0
2022-09-22T11:28:18.008Z,40.9
2022-09-22T11:33:20.504Z,40.4
2022-09-22T11:38:26.868Z,40.6
2022-09-22T11:43:33.280Z,41.1
2022-09-22T11:48:39.646Z,42.3
2022-09-22T11:53:36.006Z,40.4
2022-09-22T11:58:52.431Z,41.2
2022-09-22T12:09:05.257Z,40.1
2022-09-22T12:14:11.653Z,40.2
2022-09-22T12:19:18.004Z,39.3
2022-09-22T12:24:24.408Z,38.3
2022-09-22T12:29:30.802Z,38.6
2022-09-22T12:34:27.139Z,38.8
2022-09-22T12:39:47.530Z,40.2
2022-09-22T12:44:49.924Z,41.5
2022-09-22T12:49:46.270Z,41.8
2022-09-22T12:55:02.670Z,42.4
2022-09-22T13:00:09.179Z,42.8
2022-09-22T13:05:05.532Z,41.7
2022-09-22T13:10:21.929Z,42.8
2022-09-22T13:16:12.525Z,43.5
2022-09-22T13:21:12.865Z,36.3
2022-09-22T13:26:22.329Z,38.4
2022-09-22T13:39:27.233Z,40.7
2022-09-22T13:43:20.666Z,41.6
2022-09-22T13:48:55.286Z,41.7
2022-09-22T13:52:20.631Z,43.3
2022-09-22T13:57:07.036Z,44.0
2022-09-22T14:05:01.835Z,44.1
2022-09-22T14:07:24.462Z,45.1
2022-09-22T14:12:50.885Z,46.2
2022-09-22T14:18:45.387Z,46.5
2022-09-22T14:22:39.648Z,47.8
2022-09-22T14:28:06.043Z,47.5
2022-09-22T14:35:40.738Z,48.1
2022-09-22T14:38:05.821Z,48.8
2022-09-22T14:43:05.169Z,48.9
2022-09-22T14:48:11.678Z,49.1
2022-09-22T14:53:18.089Z,49.2
2022-09-22T14:58:26.026Z,49.1
2022-09-22T15:03:31.419Z,49.5
2022-09-22T15:08:38.747Z,49.4
2022-09-22T15:13:45.114Z,49.7
2022-09-22T15:18:51.498Z,50.1
2022-09-22T15:23:58.478Z,50.3
2022-09-22T15:29:04.824Z,50.8
2022-09-22T15:34:14.763Z,51.4
2022-09-22T15:49:24.310Z,52.4
2022-09-22T15:55:04.801Z,52.7
2022-09-22T16:00:01.120Z,52.6
2022-09-22T16:05:17.556Z,52.8
2022-09-22T16:09:49.923Z,53.1
2022-09-22T16:15:06.357Z,53.4
2022-09-22T16:20:12.768Z,53.7
2022-09-22T16:25:33.199Z,53.5
2022-09-22T16:30:26.132Z,53.9
2022-09-22T16:36:39.071Z,54.0
2022-09-22T16:41:22.399Z,54.4
2022-09-22T16:46:32.862Z,55.2
2022-09-22T16:51:35.213Z,55.3
2022-09-22T16:56:41.611Z,56.1
2022-09-22T17:01:48.183Z,57.3
2022-09-22T17:06:54.580Z,57.5
2022-09-22T17:12:00.077Z,57.1
2022-09-22T17:17:07.756Z,57.8
2022-09-22T17:22:13.170Z,58.3
2022-09-22T17:27:21.106Z,58.5
2022-09-22T17:33:27.622Z,59.0
2022-09-22T17:37:33.868Z,59.6
2022-09-22T17:42:40.246Z,59.6
2022-09-22T17:47:46.675Z,59.9
2022-09-22T17:52:53.059Z,60.1
2022-09-22T17:57:59.423Z,60.5
2022-09-22T18:03:29.885Z,61.2
2022-09-22T18:08:12.250Z,61.1
2022-09-22T18:18:25.117Z,61.8
2022-09-22T18:24:32.855Z,62.0
2022-09-22T18:29:16.168Z,62.4
2022-09-22T18:34:22.582Z,62.8
2022-09-22T18:39:28.942Z,63.0
2022-09-22T18:44:55.370Z,63.5
2022-09-22T18:49:41.763Z,63.9
2022-09-22T18:54:38.145Z,64.1
2022-09-22T18:59:54.562Z,64.4
2022-09-22T19:04:50.939Z,64.7
2022-09-22T19:10:07.350Z,64.9
2022-09-22T19:15:14.027Z,65.0
2022-09-22T19:20:40.240Z,65.2
2022-09-22T19:30:37.065Z,65.8
2022-09-22T19:35:39.659Z,66.1
2022-09-22T19:40:49.913Z,66.3
2022-09-22T19:45:52.185Z,66.7
2022-09-22T19:50:58.592Z,66.8
2022-09-22T20:01:11.539Z,67.3
2022-09-22T20:06:07.849Z,67.4
2022-09-22T20:11:26.828Z,67.7
2022-09-22T20:16:30.780Z,67.9
2022-09-22T20:21:41.183Z,68.0
2022-09-22T20:26:43.653Z,68.4
2022-09-22T20:31:54.087Z,68.5
2022-09-22T20:36:56.439Z,68.4
2022-09-22T20:42:02.831Z,68.7
2022-09-22T20:47:09.237Z,68.8
2022-09-22T20:52:15.618Z,69.1
2022-09-22T20:57:21.979Z,69.0
2022-09-22T21:02:28.447Z,69.3
2022-09-22T21:07:54.758Z,69.3
2022-09-22T21:12:41.143Z,69.6
2022-09-22T21:17:47.535Z,69.6
2022-09-22T21:23:18.171Z,69.6
2022-09-22T21:28:00.594Z,69.9
2022-09-22T21:32:57.021Z,70.3
2022-09-22T21:38:13.330Z,70.2
2022-09-22T21:43:20.829Z,70.3
2022-09-22T21:48:27.291Z,70.4
2022-09-22T21:53:53.671Z,70.6
2022-09-22T21:58:40.023Z,70.9
2022-09-22T22:04:10.752Z,71.0
2022-09-22T22:09:12.806Z,71.1
2022-09-22T22:13:59.288Z,71.3
2022-09-22T22:19:05.757Z,71.5
2022-09-22T22:24:12.166Z,71.6
2022-09-22T22:29:08.498Z,71.5
2022-09-22T22:35:26.996Z,71.6
2022-09-22T22:39:31.351Z,71.9
2022-09-22T22:44:27.631Z,72.1
2022-09-22T22:55:10.555Z,72.2
2022-09-22T22:59:56.877Z,72.2
2022-09-22T23:05:03.319Z,72.5
2022-09-22T23:10:09.653Z,72.4
2022-09-22T23:15:23.637Z,72.5
2022-09-22T23:20:50.165Z,72.9
2022-09-22T23:25:32.609Z,72.9
2022-09-22T23:30:39.179Z,73.8
2022-09-22T23:40:52.024Z,74.1
2022-09-22T23:45:58.533Z,74.3
2022-09-22T23:50:54.760Z,74.3
2022-09-22T23:56:11.170Z,74.4
